Weather observations for the past three days for
Richard I. Bong Airport
Imperial (Metric)
Date Time (cdt) Wind (mph) Vis. (mi.) Weather Sky Cond. Temperature (ºF) Relative Humidity Wind Chill (°F) Heat Index (°F) Pressure Precipitation (in)
Air Dwpt 6 hour altimeter (in) sea level (mb) 1 hr 3 hr 6 hr
Max. Min.
10 07:35 NW 10 G 17 10.00 Fair CLR 40.6 28.2 61% 35 30.08 0.0
10 07:15 NW 12 G 17 10.00 Fair CLR 40.1 28.2 63% 34 30.08 0.0
10 06:55 NW 9 10.00 Fair CLR 39.4 28.9 40.3 35.2 66% 34 30.07 0.0
10 06:35 NW 9 10.00 Fair CLR 38.3 29.1 70% 33 30.06 0.0
10 06:15 NW 8 10.00 Fair CLR 36.9 28.4 72% 31 30.05 0.0
10 05:55 W 7 10.00 Fair CLR 36.3 28 72% 31 30.04 0.0
10 05:35 W 6 10.00 Fair CLR 35.4 27.3 72% 31 30.03 0.0
10 05:15 W 7 10.00 Fair CLR 37.9 27.9 67% 33 30.02 0.0
10 04:55 W 8 10.00 Fair CLR 37.8 27.5 67% 32 30.01 0.0
10 04:35 W 7 10.00 Fair CLR 38.5 27.5 65% 34 30.01 0.0
10 04:15 W 7 10.00 Fair CLR 38.3 27.3 65% 34 30 0.0
10 03:55 W 7 10.00 Fair CLR 38.7 27.5 64% 34 29.99 0.0
10 03:35 W 7 10.00 Fair CLR 39.2 27.5 63% 35 29.99 0.0
10 03:15 NW 7 10.00 Partly Cloudy SCT110 39.7 27.5 62% 35 29.98 0.0
10 02:50 W 6 10.00 Overcast OVC110 39.4 26.6 60% 36 29.98 0.0
10 02:35 W 6 10.00 Overcast OVC110 39.2 26.4 60% 36 29.97 0.0
10 02:15 W 6 10.00 Overcast SCT050 OVC120 40.1 26.2 58% 37 29.97 0.0
10 01:55 W 6 10.00 Overcast OVC120 39.6 26.2 59% 36 29.96 0.0
10 01:35 W 3 10.00 Overcast SCT065 SCT095 OVC120 40.1 26.2 58% 29.96 0.0
10 01:15 W 3 10.00 Overcast BKN065 BKN075 OVC120 39.4 26.4 60% 29.96 0.0
10 00:55 W 3 10.00 Overcast BKN065 BKN075 OVC120 40.5 26.6 52.3 37.2 58% 29.96 0.0
10 00:35 W 3 10.00 Overcast BKN065 BKN085 OVC100 39.4 26.2 59% 29.96 0.0
10 00:15 W 5 10.00 Mostly Cloudy SCT065 BKN110 39.4 25.7 58% 37 29.95 0.0
09 23:55 W 3 10.00 Partly Cloudy SCT110 38.7 24.4 57% 29.95 0.0
09 23:35 W 3 10.00 Partly Cloudy SCT090 SCT110 38.5 24.3 57% 29.94 0.0
09 23:15 W 3 10.00 Mostly Cloudy BKN110 38.5 24.1 56% 29.94 0.0
09 22:55 Calm 10.00 Overcast OVC110 40.8 23.2 49% 29.94 0.0
09 22:35 W 5 10.00 Mostly Cloudy BKN110 41.5 22.8 47% 39 29.94 0.0
09 22:15 NW 3 10.00 Partly Cloudy SCT110 41.9 22.5 46% 29.94 0.0
09 21:55 NW 6 10.00 Fair CLR 42.8 22.1 44% 40 29.93 0.0
09 21:35 NW 7 10.00 Fair CLR 43.9 22.1 42% 40 29.93 0.0
09 21:15 NW 9 10.00 Partly Cloudy SCT090 46.9 22.1 37% 43 29.92 0.0
09 20:55 NW 10 G 17 10.00 Mostly Cloudy SCT070 BKN090 48.4 22.5 36% 44 29.91 0.0
09 20:35 NW 8 G 16 10.00 Overcast OVC090 48.9 22.3 35% 46 29.9 0.0
09 20:15 NW 13 10.00 Overcast OVC090 49.6 21.9 34% 45 29.88 0.0
09 19:55 NW 8 10.00 Overcast OVC090 50.5 21.7 32% 29.87 0.0
09 19:35 NW 12 G 22 10.00 Mostly Cloudy BKN090 50.9 21 31% 29.87 0.0
09 19:15 NW 13 G 16 10.00 Partly Cloudy SCT090 52 20.7 29% 29.86 0.0
09 18:55 NW 14 G 22 10.00 Partly Cloudy SCT080 52 20.8 58.3 52 29% 29.85 0.0
09 18:35 NW 15 G 21 10.00 Mostly Cloudy BKN080 BKN090 54.5 21.7 28% 29.84 0.0
09 18:15 NW 17 G 26 10.00 Overcast OVC080 54.5 21.6 28% 29.83 0.0
09 17:55 NW 14 G 23 10.00 Mostly Cloudy BKN090 55.2 20.7 26% 29.82 0.0
09 17:35 NW 14 G 21 10.00 Mostly Cloudy BKN090 53.6 21 28% 29.81 0.0
09 17:15 NW 17 G 25 10.00 Overcast OVC090 54.5 21.2 27% 29.81 0.0
09 16:55 NW 12 G 21 10.00 Overcast OVC090 54.5 21.9 28% 29.8 0.0
09 16:35 NW 16 G 21 10.00 Mostly Cloudy SCT080 BKN090 54 20.8 27% 29.8 0.0
09 16:15 NW 12 G 22 10.00 Overcast OVC085 55 21.4 27% 29.79 0.0
09 15:55 NW 17 G 25 10.00 Overcast OVC075 56.7 22.3 26% 29.79 0.0
09 15:35 NW 15 G 26 10.00 Overcast OVC080 54.7 21.9 28% 29.79 0.0
09 15:15 NW 12 G 26 10.00 Overcast OVC080 54 21.6 28% 29.79 0.0
09 14:55 W 15 G 22 10.00 Mostly Cloudy BKN080 54.1 21.9 28% 29.79 0.0
09 14:35 NW 14 G 24 10.00 Mostly Cloudy BKN070 53.1 21.6 29% 29.78 0.0
09 14:15 NW 18 G 23 10.00 Overcast OVC070 53.6 22.1 29% 29.78 0.0
09 13:55 NW 20 G 25 10.00 Overcast OVC070 54.3 22.3 29% 29.78 0.0
09 13:35 NW 15 G 21 10.00 Overcast OVC070 52.2 22.1 31% 29.77 0.0
09 13:15 NW 16 G 23 10.00 Overcast OVC060 53.4 23.2 31% 29.77 0.0
09 12:35 NW 18 G 28 10.00 Partly Cloudy SCT060 52.9 23.5 32% 29.76 0.0
09 12:15 NW 15 G 22 10.00 Mostly Cloudy BKN060 54.3 24.3 31% 29.76 0.0
09 11:55 NW 16 G 22 10.00 Mostly Cloudy BKN060 52.7 23.4 32% 29.75 0.0
09 11:35 NW 21 G 28 10.00 Mostly Cloudy and Breezy BKN060 51.1 23.9 35% 29.73 0.0
09 11:15 N 15 G 29 10.00 Mostly Cloudy BKN060 52.5 24.3 33% 29.73 0.0
09 10:55 NW 20 G 26 10.00 Overcast OVC060 51.1 24.6 36% 29.72 0.0
09 10:35 N 10 G 22 10.00 Mostly Cloudy BKN060 52.3 24.8 34% 29.71 0.0
09 10:15 N 15 G 24 10.00 Fair CLR 50.5 24.1 36% 29.71 0.0
09 09:55 NW 16 G 25 10.00 Fair CLR 50.9 24.1 35% 29.7 0.0
09 09:35 NW 17 G 24 10.00 Fair CLR 50.4 23.5 35% 29.7 0.0
09 09:15 NW 14 G 24 10.00 Fair CLR 50.2 22.3 33% 29.69 0.0
09 08:55 NW 15 G 18 10.00 Fair CLR 50 21.9 33% 45 29.68 0.0
09 08:10 NW 12 G 18 10.00 Mostly Cloudy BKN100 48.6 21 34% 44 29.66 0.0
09 07:55 NW 12 10.00 Overcast OVC100 46.6 20.8 36% 42 29.66 0.0
09 07:30 NW 10 10.00 Overcast OVC100 46.4 21.2 37% 42 29.65 0.0
09 07:15 NW 10 10.00 Overcast OVC100 46.4 21.2 37% 42 29.64 0.0
09 06:55 NW 10 10.00 Overcast OVC100 46.4 20.7 50.2 45.9 36% 42 29.63 0.0
09 06:35 NW 12 G 20 10.00 Overcast OVC085 47.3 20.1 34% 43 29.62 0.0
09 06:15 W 7 10.00 Overcast SCT050 SCT065 OVC075 45.9 23 41% 43 29.61 0.0
09 05:55 W 7 10.00 Light Drizzle SCT050 SCT065 OVC075 46.4 23.2 40% 43 29.6 0.0
09 05:35 NW 6 10.00 Overcast OVC075 47.7 21.2 35% 45 29.59 0.0
09 05:15 NW 8 10.00 Overcast OVC075 47.7 22.6 37% 44 29.59 0.0
09 04:35 NW 9 10.00 Light Rain OVC075 49.1 25 39% 46 29.58 0.0
09 04:15 NW 8 10.00 Overcast OVC075 49.1 27.1 43% 46 29.58 0.0
09 03:55 NW 6 10.00 Overcast BKN075 OVC085 49.1 27 42% 47 29.57 0.0
09 03:35 W 6 10.00 Overcast BKN075 OVC090 49.3 26.4 41% 47 29.57 0.0
09 03:15 W 5 10.00 Overcast SCT075 OVC090 49.1 26.4 41% 48 29.56 0.0
09 02:55 W 6 10.00 Overcast OVC090 49.5 26.2 40% 48 29.56 0.0
09 02:35 W 5 10.00 Overcast OVC090 49.6 26.2 40% 48 29.56 0.0
09 02:15 W 6 10.00 Mostly Cloudy SCT075 BKN090 BKN120 48.4 27.1 44% 46 29.57 0.0
09 01:55 W 6 10.00 Overcast SCT075 BKN100 OVC120 48.2 27.3 44% 46 29.57 0.0
09 01:35 NW 7 10.00 Overcast BKN100 OVC120 48.7 26.6 42% 46 29.58 0.0
09 01:15 W 6 10.00 Overcast BKN095 OVC120 50 27.1 41% 48 29.57 0.0
09 00:55 W 6 10.00 Partly Cloudy SCT120 49.5 27.1 64.2 48 42% 48 29.57 0.0
09 00:35 W 6 10.00 Fair CLR 48.6 28.2 45% 47 29.57 0.0
09 00:15 W 5 10.00 Fair CLR 48.4 28 45% 47 29.56 0.0
08 23:55 W 5 10.00 Fair CLR 50.4 27.3 41% 29.56 0.0
08 23:35 W 7 10.00 Fair CLR 49.3 28.8 45% 47 29.57 0.0
08 23:15 W 6 10.00 Fair CLR 48.7 27.5 44% 47 29.57 0.0
08 22:55 NW 7 10.00 Fair CLR 50 27.5 42% 48 29.57 0.0
08 22:35 W 5 10.00 Fair CLR 51.6 27.7 40% 29.56 0.0
08 22:15 NW 6 10.00 Fair CLR 55.2 27.5 34% 29.56 0.0
08 21:55 NW 13 G 18 10.00 Partly Cloudy SCT090 56.8 27.5 33% 29.55 0.0
08 21:35 NW 10 10.00 Overcast OVC090 58.1 27.1 31% 29.55 0.0
08 21:15 NW 9 10.00 Overcast OVC090 56.8 27.9 33% 29.54 0.0
08 20:55 W 5 10.00 Overcast OVC100 55.8 25.7 31% 29.53 0.0
08 20:35 NW 5 10.00 Mostly Cloudy BKN100 58.3 25.5 28% 29.52 0.0
08 20:15 NW 7 10.00 Partly Cloudy SCT100 60.1 24.6 26% 29.52 0.0
08 19:55 W 7 10.00 Mostly Cloudy BKN110 61.2 23.9 24% 29.52 0.0
08 19:35 W 6 G 10 10.00 Mostly Cloudy BKN110 63.1 24.3 23% 29.51 0.0
08 19:15 W 7 10.00 Overcast OVC100 63.9 24.6 22% 29.52 0.0
08 18:55 W 9 10.00 Overcast OVC110 64 24.4 67.6 60.4 22% 29.52 0.0
08 18:35 W 8 10.00 Overcast OVC100 64 24.1 22% 29.53 0.0
08 18:15 SW 12 10.00 Overcast OVC100 64.4 24.4 22% 29.53 0.0
08 17:55 W 15 G 25 10.00 Overcast OVC100 63.7 23.9 22% 29.54 0.0
08 17:35 W 10 G 20 10.00 Overcast OVC100 64.2 23.4 21% 29.54 0.0
08 17:15 SW 15 G 23 10.00 Mostly Cloudy BKN100 64.8 23.9 21% 29.54 0.0
08 16:55 W 16 10.00 Mostly Cloudy BKN100 65.7 24.1 21% 29.55 0.0
08 16:35 W 18 G 22 10.00 Mostly Cloudy BKN100 66.6 24.3 20% 29.55 0.0
08 16:15 SW 13 G 26 10.00 Partly Cloudy SCT100 65.8 23.2 20% 29.56 0.0
08 15:55 SW 13 G 20 10.00 Mostly Cloudy BKN100 66.9 23.5 19% 29.56 0.0
08 15:35 SW 12 G 21 10.00 Mostly Cloudy BKN095 66.4 23.4 19% 29.57 0.0
08 15:15 W 13 G 17 10.00 Mostly Cloudy BKN095 65.5 24.4 21% 29.59 0.0
08 14:55 SW 7 10.00 Partly Cloudy SCT095 67.6 24.4 19% 29.59 0.0
08 14:35 W 12 G 17 10.00 Partly Cloudy SCT095 64.6 23 20% 29.6 0.0
08 14:15 SW 9 10.00 Mostly Cloudy BKN095 63.3 22.6 21% 29.62 0.0
08 13:35 SW 6 10.00 Partly Cloudy SCT095 63.5 22.6 21% 29.63 0.0
08 13:15 SW 10 10.00 Fair CLR 60.8 21.9 22% 29.64 0.0
08 12:55 W 3 10.00 Fair CLR 61.2 21.2 63.1 32 21% 29.66 0.0
08 12:35 W 13 G 17 10.00 Fair CLR 61.5 22.3 22% 29.66 0.0
08 12:15 Calm 10.00 Fair CLR 62.4 22.3 21% 29.68 0.0
08 11:55 S 3 10.00 Fair CLR 61.2 23.2 23% 29.69 0.0
08 11:35 SW 6 10.00 Fair CLR 59.4 24.1 26% 29.69 0.0
08 11:15 W 6 10.00 Fair CLR 59.7 23.4 25% 29.7 0.0
08 10:55 W 6 10.00 Fair CLR 59.2 23.5 25% 29.7 0.0
08 10:35 Calm 10.00 Fair CLR 57.4 23 26% 29.71 0.0
08 10:15 W 3 10.00 Fair CLR 54.9 23.7 30% 29.72 0.0
08 09:55 Calm 10.00 Fair CLR 52.9 25.2 34% 29.72 0.0
08 09:35 Calm 10.00 Fair CLR 51.1 26.2 38% 29.73 0.0
08 09:15 Calm 10.00 Partly Cloudy SCT120 49.1 25.7 40% 29.74 0.0
08 08:55 SW 5 10.00 Partly Cloudy SCT120 47.7 25.7 42% 46 29.74 0.0
08 08:35 SW 5 10.00 Partly Cloudy SCT120 45.3 25.2 45% 43 29.74 0.0
08 08:15 SW 3 10.00 Fair CLR 42.6 25.3 51% 29.75 0.0
08 07:55 SW 3 10.00 Fair CLR 41 25.9 55% 29.75 0.0
08 07:35 Calm 10.00 Fair CLR 38.8 26.2 61% 29.75 0.0
08 07:15 Calm 10.00 Fair CLR 33.3 27.7 80% 29.74 0.0
08 06:55 Calm 10.00 Fair CLR 32 26.4 32 24.4 80% 29.74 0.0
08 06:35 S 3 10.00 Fair CLR 28.6 24.3 84% 29.74 0.0
08 06:15 Calm 10.00 Fair CLR 26.4 22.5 85% 29.74 0.0
08 05:55 SW 3 10.00 Fair CLR 25.7 21 82% 29.74 0.0
08 05:35 Calm 10.00 Fair CLR 27 22.8 84% 29.74 0.0
08 05:15 Calm 10.00 Fair CLR 26.4 22.3 84% 29.75 0.0
08 04:55 Calm 10.00 Fair CLR 27.9 22.1 79% 29.75 0.0
08 04:35 Calm 10.00 Fair CLR 27.9 23 82% 29.75 0.0
08 04:15 Calm 10.00 Fair CLR 27.7 23 83% 29.76 0.0
08 03:55 S 3 10.00 Fair CLR 27.3 23.7 86% 29.76 0.0
08 03:35 S 5 10.00 Fair CLR 26.6 23.9 90% 22 29.76 0.0
08 03:15 Calm 10.00 Fair CLR 26.6 23.9 90% 29.77 0.0
08 02:55 Calm 10.00 Fair CLR 25.5 22.6 89% 29.77 0.0
08 02:35 Calm 10.00 Fair CLR 28.6 25.2 87% 29.77 0.0
08 02:15 Calm 10.00 Fair CLR 26.8 24.3 90% 29.78 0.0
08 01:55 S 3 10.00 Fair CLR 27.7 25.2 90% 29.78 0.0
08 01:35 Calm 10.00 Fair CLR 28.4 24.8 86% 29.79 0.0
08 01:15 Calm 10.00 Fair CLR 28.8 24.4 84% 29.79 0.0
08 00:55 Calm 10.00 Fair CLR 29.7 24.1 53.4 29.7 80% 29.79 0.0
08 00:35 Calm 10.00 Fair CLR 31.5 24.4 75% 29.79 0.0
08 00:15 Calm 10.00 Fair CLR 29.8 24.1 79% 29.79 0.0
07 23:55 Calm 10.00 Fair CLR 29.7 23.9 79% 29.79 0.0
07 23:35 Calm 10.00 Fair CLR 31.8 23.4 71% 29.8 0.0
07 23:15 Calm 10.00 Fair CLR 32.2 24.4 73% 29.8 0.0
07 22:55 Calm 10.00 Fair CLR 34.7 24.4 66% 29.8 0.0
07 22:35 Calm 10.00 Fair CLR 34.9 24.8 67% 29.8 0.0
07 22:15 Calm 10.00 Fair CLR 35.1 24.6 66% 29.8 0.0
07 21:55 Calm 10.00 Fair CLR 35.6 23.2 61% 29.79 0.0
07 21:35 Calm 10.00 Fair CLR 39 21.9 50% 29.79 0.0
07 21:15 Calm 10.00 Fair CLR 40.3 21.7 48% 29.79 0.0
07 20:55 N 3 10.00 Fair CLR 46.9 19.9 34% 29.78 0.0
07 20:35 Calm 10.00 Partly Cloudy SCT090 48.2 20.8 34% 29.78 0.0
07 20:15 Calm 10.00 Overcast OVC090 51.3 21.6 31% 29.77 0.0
07 19:55 Calm 10.00 Overcast OVC090 52.2 22.1 31% 29.77 0.0
07 19:35 Calm 10.00 Overcast OVC090 51.8 22.5 32% 29.77 0.0
07 19:15 Calm 10.00 Overcast OVC090 52 22.6 32% 29.77 0.0
07 18:55 Calm 10.00 Mostly Cloudy BKN090 53.1 24.1 54.3 49.5 32% 29.77 0.0
07 18:35 Calm 10.00 Overcast SCT070 BKN090 OVC100 52.9 22.6 31% 29.77 0.0
07 18:15 SW 5 10.00 Overcast OVC080 52 23.7 33% 29.77 0.0
07 17:55 W 7 10.00 Mostly Cloudy SCT070 BKN080 BKN100 51.8 23.5 33% 29.78 0.0
07 17:35 NW 10 10.00 Mostly Cloudy SCT065 SCT080 BKN100 52.7 25 34% 29.78 0.0
07 17:15 NW 6 10.00 Overcast BKN070 BKN075 OVC110 51.8 26.2 37% 29.79 0.0
07 16:55 N 3 10.00 Overcast OVC065 49.5 27.5 43% 29.79 0.0
07 16:35 W 8 G 18 10.00 Overcast SCT050 BKN075 OVC080 51.4 24.8 35% 29.79 0.0
07 16:15 W 13 G 18 10.00 Overcast SCT075 BKN080 OVC095 52 25.3 36% 29.79 0.0
07 15:55 SW 14 G 22 10.00 Mostly Cloudy SCT070 BKN090 52.5 25.7 35% 29.79 0.0
07 15:35 W 10 10.00 Mostly Cloudy SCT075 BKN090 BKN110 52.2 25.3 35% 29.79 0.0
07 15:15 NW 12 G 24 10.00 Mostly Cloudy SCT055 BKN070 BKN100 54 26.2 34% 29.8 0.0
07 14:55 W 16 G 24 10.00 Overcast SCT047 SCT050 OVC070 52.2 23.2 32% 29.8 0.0
07 14:35 W 17 G 24 10.00 Overcast SCT050 OVC060 52 23.7 33% 29.81 0.0
07 14:15 W 10 10.00 Overcast BKN060 OVC080 52 22.1 31% 29.8 0.0
07 13:55 W 15 G 24 10.00 Overcast OVC070 52.2 22.3 31% 29.8 0.0
07 13:35 W 9 G 23 10.00 Overcast SCT040 BKN070 OVC090 50.2 21.2 32% 29.81 0.0
07 13:15 SW 12 10.00 Overcast SCT039 BKN060 OVC090 51.4 22.6 32% 29.81 0.0
07 12:55 W 12 10.00 Overcast SCT050 BKN070 OVC090 51.4 21.9 53.8 34.2 31% 29.82 0.0
07 12:35 W 12 G 16 10.00 Overcast SCT044 BKN070 OVC090 50.4 23 34% 29.83 0.0
07 12:15 W 12 G 21 10.00 Overcast SCT060 BKN075 OVC090 50.2 22.5 34% 29.83 0.0
07 11:55 SW 10 G 21 10.00 Mostly Cloudy SCT060 BKN090 50.4 23.5 35% 29.84 0.0
07 11:35 W 9 G 17 10.00 Mostly Cloudy SCT060 SCT075 BKN090 50.4 22.6 34% 29.84 0.0
07 11:15 W 9 10.00 Overcast BKN060 BKN075 OVC090 50.4 23.9 36% 29.85 0.0
07 10:55 W 10 10.00 Overcast SCT060 OVC090 50.2 23.5 35% 29.86 0.0
07 10:35 NW 9 10.00 Overcast SCT060 BKN070 OVC090 47.7 21.7 36% 44 29.86 0.0
07 10:15 W 14 G 20 10.00 Overcast SCT055 BKN070 OVC080 46.4 22.3 39% 41 29.86 0.0
07 09:55 W 10 10.00 Mostly Cloudy SCT055 BKN085 BKN090 49.5 24.4 38% 46 29.86 0.0
07 09:35 W 10 G 17 10.00 Partly Cloudy SCT085 48.2 25 40% 44 29.87 0.0
07 09:15 W 9 10.00 Fair CLR 46.8 25.2 43% 43 29.87 0.0
07 08:55 W 8 10.00 Fair CLR 44.6 24.8 46% 41 29.88 0.0
07 08:35 SW 6 10.00 Fair CLR 42.6 25.2 50% 40 29.88 0.0
07 08:15 SW 8 10.00 Fair CLR 41.4 25.5 53% 37 29.88 0.0
07 07:55 SW 7 10.00 Fair CLR 39.6 25.7 58% 35 29.88 0.0
Date Time (cdt) Wind (mph) Vis. (mi.) Weather Sky Cond. Air Dwpt Max. Min. Relative Humidity Wind Chill (°F) Heat Index (°F) altimeter (in) sea level (mb) 1 hr 3 hr 6 hr
6 hour
Temperature (ºF) Pressure Precipitation (in)